Amity Harbor, New York
Current Conditions -  °F | °C
As of 4:53 PM on Monday 20 Oct 2014 (Local Time) from KFRG Reporting Station
Clear Clear  
Wind Chill: 59°   Ceiling: Unl
Heat Index: 59°   Visibility: 10mi
Dew Point: 39°   Wind: 14mph
Humidity: 48%   Direction: 210°SSW
Pressure: 30"   Gusts: NA
Location:  40.6858°N, 73.4152°W
Report Text: KFRG 202053Z 21012KT 10SM CLR 15/04 A3000 RMK AO2 SLP158 T01500039 58018
Loading
Personal Weather Stations






























Interactive Weather Map New forecast layout! Learn more

10-Day Weather Forecast

Advertisements
Track Severe Weather on mobile